Time;durP1;ratioP1;P1;durP2;ratioP2;P2;SDS_P1;SDS_P2;PMS_P1;PMS_P2;Temp;Humidity;BMP_temperature;BMP_pressure;BME280_temperature;BME280_humidity;BME280_pressure;Samples;Min_cycle;Max_cycle;Signal;HPM_P1;HPM_P2
2023/01/02 00:01:55;;;;;;;11.87;6.93;;;9.10;1.00;;;;;;10059938;29;20197;-83
2023/01/02 00:07:17;;;;;;;10.97;7.40;;;9.10;1.00;;;;;;10059224;29;20237;-79
2023/01/02 00:12:38;;;;;;;12.70;7.13;;;9.10;1.00;;;;;;10061646;29;20203;-78
2023/01/02 00:17:59;;;;;;;13.97;8.40;;;9.00;1.00;;;;;;10046934;29;20509;-81
2023/01/02 00:23:20;;;;;;;14.37;8.63;;;8.90;1.00;;;;;;10048105;29;20254;-83
2023/01/02 00:28:41;;;;;;;15.20;8.97;;;8.80;1.00;;;;;;10048444;29;20608;-84
2023/01/02 00:34:02;;;;;;;18.07;9.10;;;8.80;1.00;;;;;;10045637;29;20293;-84
2023/01/02 00:39:23;;;;;;;12.30;7.77;;;8.80;1.00;;;;;;10045350;29;20503;-82
2023/01/02 00:44:45;;;;;;;12.13;7.73;;;8.70;1.00;;;;;;10046198;29;20248;-83
2023/01/02 00:50:06;;;;;;;16.73;8.70;;;8.80;1.00;;;;;;10032336;29;20232;-83
2023/01/02 00:55:27;;;;;;;17.23;9.03;;;8.80;1.00;;;;;;10045783;29;20199;-82
2023/01/02 01:00:49;;;;;;;13.73;8.63;;;8.80;1.00;;;;;;10056966;29;20200;-82
2023/01/02 01:06:11;;;;;;;17.03;9.30;;;8.80;1.00;;;;;;10057239;29;20192;-83
2023/01/02 01:11:32;;;;;;;19.13;9.47;;;8.80;1.00;;;;;;10060002;29;20232;-82
2023/01/02 01:16:53;;;;;;;15.53;7.73;;;8.70;9.10;;;;;;10045275;29;20581;-83
2023/01/02 01:22:14;;;;;;;14.43;7.27;;;8.70;20.70;;;;;;10044094;29;20208;-78
2023/01/02 01:27:35;;;;;;;12.77;6.63;;;8.60;41.00;;;;;;10043391;29;20208;-83
2023/01/02 01:32:57;;;;;;;10.67;6.60;;;8.60;79.20;;;;;;10043266;29;20218;-77
2023/01/02 01:38:18;;;;;;;13.53;7.23;;;8.70;99.90;;;;;;10029914;29;20239;-83
2023/01/02 01:43:57;;;;;;;14.97;7.60;;;8.70;99.90;;;;;;10042908;29;20312;-84
2023/01/02 01:49:27;;;;;;;10.83;6.30;;;8.60;99.90;;;;;;10043013;29;20231;-85
2023/01/02 01:55:15;;;;;;;17.57;7.03;;;8.60;99.90;;;;;;10043246;29;20207;-83
2023/01/02 02:00:40;;;;;;;16.77;7.03;;;8.50;99.90;;;;;;10029968;29;20287;-83
2023/01/02 02:06:03;;;;;;;10.77;5.27;;;8.50;99.90;;;;;;10029498;29;20388;-83
2023/01/02 02:11:24;;;;;;;12.30;5.57;;;8.40;99.90;;;;;;10004749;29;20428;-84
2023/01/02 02:17:09;;;;;;;10.00;5.37;;;8.30;99.90;;;;;;10005561;29;20522;-84
2023/01/02 02:22:44;;;;;;;12.80;6.30;;;8.30;99.90;;;;;;10019902;29;20213;-82
2023/01/02 02:28:08;;;;;;;12.13;5.43;;;8.40;99.90;;;;;;10005423;29;20416;-84
2023/01/02 02:33:32;;;;;;;9.50;5.93;;;8.30;99.90;;;;;;10018826;29;20236;-84
2023/01/02 02:38:59;;;;;;;12.10;4.87;;;8.40;99.90;;;;;;10054731;29;20216;-82
2023/01/02 02:44:28;;;;;;;7.53;4.03;;;8.40;99.90;;;;;;10042422;29;20254;-80
2023/01/02 02:50:09;;;;;;;6.27;3.30;;;8.40;99.90;;;;;;10041336;29;20255;-83
2023/01/02 02:55:45;;;;;;;6.67;3.30;;;8.40;99.90;;;;;;10042006;29;20200;-83
2023/01/02 03:01:13;;;;;;;9.27;3.50;;;8.30;99.90;;;;;;10042209;29;20380;-84
2023/01/02 03:07:03;;;;;;;8.03;3.53;;;8.40;99.90;;;;;;10041936;29;20205;-83
2023/01/02 03:12:28;;;;;;;10.00;4.13;;;8.40;99.90;;;;;;10043111;29;20274;-84
2023/01/02 03:18:03;;;;;;;6.87;3.97;;;8.40;99.90;;;;;;10041587;29;20223;-83
2023/01/02 03:23:28;;;;;;;7.13;3.70;;;8.40;99.90;;;;;;10043876;29;20202;-81
2023/01/02 03:28:55;;;;;;;6.17;3.93;;;8.40;99.90;;;;;;10049242;29;20239;-83
2023/01/02 03:34:29;;;;;;;6.10;3.97;;;8.40;99.90;;;;;;10049544;29;20509;-84
2023/01/02 03:39:54;;;;;;;6.50;3.70;;;8.40;99.90;;;;;;10048782;29;20200;-84
2023/01/02 03:45:19;;;;;;;7.97;3.77;;;8.40;99.90;;;;;;10048292;29;20201;-84
2023/01/02 03:50:51;;;;;;;6.47;3.83;;;8.40;99.90;;;;;;10048451;29;20420;-85
2023/01/02 03:56:25;;;;;;;7.63;4.67;;;8.50;99.90;;;;;;10048194;29;20204;-84
2023/01/02 04:02:00;;;;;;;9.60;5.93;;;8.50;99.90;;;;;;10046865;29;20420;-84
2023/01/02 04:07:33;;;;;;;16.10;8.13;;;8.50;99.90;;;;;;10047487;29;20245;-84
2023/01/02 04:12:58;;;;;;;11.47;6.90;;;8.50;99.90;;;;;;10047485;29;20225;-84
2023/01/02 04:18:43;;;;;;;14.03;7.80;;;8.50;99.90;;;;;;10048650;29;20265;-84
2023/01/02 04:24:15;;;;;;;10.57;6.80;;;8.50;99.90;;;;;;10046936;29;20508;-84
2023/01/02 04:29:37;;;;;;;12.00;5.70;;;8.50;99.90;;;;;;10061191;29;20308;-84
2023/01/02 04:34:59;;;;;;;9.80;5.40;;;8.50;99.90;;;;;;10044272;29;20213;-84
2023/01/02 04:40:29;;;;;;;8.53;6.57;;;8.50;99.90;;;;;;10046385;29;20249;-83
2023/01/02 04:45:51;;;;;;;12.03;8.00;;;8.50;99.90;;;;;;10046000;29;20210;-83
2023/01/02 04:51:12;;;;;;;9.37;6.10;;;8.50;99.90;;;;;;10058075;29;20240;-84
2023/01/02 04:56:33;;;;;;;10.83;6.73;;;8.50;99.90;;;;;;10057876;29;20226;-84
2023/01/02 05:01:54;;;;;;;10.07;7.53;;;8.50;99.90;;;;;;10044324;29;20219;-84
2023/01/02 05:07:16;;;;;;;9.70;5.83;;;8.50;99.90;;;;;;10044531;29;20208;-83
2023/01/02 05:12:38;;;;;;;11.83;6.63;;;8.50;99.90;;;;;;10059037;29;20291;-79
2023/01/02 05:17:59;;;;;;;9.70;6.07;;;8.50;99.90;;;;;;10044685;29;20409;-77
2023/01/02 05:29:00;;;;;;;8.60;5.40;;;8.50;99.90;;;;;;10044568;29;20224;-83
2023/01/02 05:34:21;;;;;;;14.73;7.77;;;8.50;99.90;;;;;;10044194;29;20208;-83
2023/01/02 05:39:42;;;;;;;13.10;8.07;;;8.50;99.90;;;;;;10044415;29;20383;-83
2023/01/02 05:45:03;;;;;;;19.03;9.07;;;8.50;99.90;;;;;;10043834;29;20212;-83
2023/01/02 05:50:25;;;;;;;13.10;8.80;;;8.50;99.90;;;;;;10043892;29;20270;-83
2023/01/02 05:55:46;;;;;;;14.57;9.03;;;8.50;99.90;;;;;;10042354;29;20256;-77
2023/01/02 06:01:12;;;;;;;16.20;9.93;;;8.50;99.90;;;;;;10041963;29;20429;-78
2023/01/02 06:06:36;;;;;;;15.03;9.33;;;8.60;99.90;;;;;;10042895;29;20207;-83
2023/01/02 06:11:58;;;;;;;18.27;9.50;;;8.60;99.90;;;;;;10029289;29;20284;-84
2023/01/02 06:17:20;;;;;;;17.67;10.30;;;8.60;99.90;;;;;;10043296;29;20209;-84
2023/01/02 06:22:41;;;;;;;27.63;17.43;;;8.60;99.90;;;;;;10057336;29;20517;-82
2023/01/02 06:28:02;;;;;;;20.47;9.87;;;8.60;99.90;;;;;;10043012;29;20207;-83
2023/01/02 06:33:23;;;;;;;14.77;8.90;;;8.70;99.90;;;;;;10056921;29;20235;-82
2023/01/02 06:38:45;;;;;;;15.37;9.10;;;8.70;99.90;;;;;;10056750;29;20506;-84
2023/01/02 06:44:09;;;;;;;17.17;8.70;;;8.70;99.90;;;;;;10042209;29;20613;-83
2023/01/02 06:49:30;;;;;;;12.83;8.00;;;8.70;99.90;;;;;;10042294;29;20273;-84
2023/01/02 06:54:51;;;;;;;15.57;9.20;;;8.80;99.90;;;;;;10040882;29;20222;-80
2023/01/02 07:00:13;;;;;;;28.33;15.17;;;8.80;99.90;;;;;;10058609;29;20211;-82
2023/01/02 07:05:34;;;;;;;29.27;15.73;;;8.80;99.90;;;;;;10049348;29;20214;-77
2023/01/02 07:11:05;;;;;;;23.17;12.83;;;8.90;99.90;;;;;;10061410;29;20237;-84
2023/01/02 07:16:26;;;;;;;22.93;14.67;;;8.80;99.90;;;;;;10049685;29;20192;-83
2023/01/02 07:21:47;;;;;;;40.33;29.50;;;8.90;99.90;;;;;;10049454;29;20277;-84
2023/01/02 07:27:08;;;;;;;28.87;14.10;;;8.90;99.90;;;;;;10048407;29;20201;-83
2023/01/02 07:32:29;;;;;;;19.73;13.53;;;8.90;99.90;;;;;;10049101;29;20553;-82
2023/01/02 07:37:51;;;;;;;24.73;15.73;;;8.90;99.90;;;;;;10078483;29;20214;-83
2023/01/02 07:43:12;;;;;;;30.07;18.30;;;8.90;99.90;;;;;;10086596;29;20234;-84
2023/01/02 07:48:32;;;;;;;33.43;20.60;;;8.90;99.90;;;;;;10086550;29;20292;-81
2023/01/02 07:53:54;;;;;;;33.83;22.17;;;8.90;99.90;;;;;;10100633;29;20210;-83
2023/01/02 07:59:15;;;;;;;33.63;21.07;;;8.90;99.90;;;;;;10087516;29;20445;-84
2023/01/02 08:04:36;;;;;;;50.73;26.73;;;8.90;99.90;;;;;;10086093;29;20248;-84
2023/01/02 08:09:58;;;;;;;36.77;21.97;;;9.00;99.90;;;;;;10024126;29;20224;-84
2023/01/02 08:15:19;;;;;;;40.47;23.07;;;9.00;99.90;;;;;;10023488;29;20232;-84
2023/01/02 08:20:40;;;;;;;30.37;18.30;;;8.90;99.90;;;;;;10023044;29;20274;-79
2023/01/02 08:26:04;;;;;;;29.27;17.90;;;9.00;99.90;;;;;;10009248;29;20201;-79
2023/01/02 08:31:27;;;;;;;36.23;19.70;;;9.10;99.90;;;;;;10033365;29;20581;-76
2023/01/02 08:36:48;;;;;;;33.97;21.90;;;9.20;99.90;;;;;;10044178;29;20273;-77
2023/01/02 08:42:09;;;;;;;27.47;17.30;;;9.20;99.90;;;;;;10042923;29;20289;-77
2023/01/02 08:47:31;;;;;;;36.40;18.97;;;9.20;99.90;;;;;;10041556;29;20397;-78
2023/01/02 08:52:52;;;;;;;75.30;32.30;;;9.30;99.90;;;;;;10041229;29;20274;-77
2023/01/02 08:58:13;;;;;;;41.20;22.73;;;9.30;99.90;;;;;;10001711;29;20213;-77
2023/01/02 09:03:34;;;;;;;36.53;19.00;;;9.50;99.90;;;;;;10001827;29;20228;-81
2023/01/02 09:08:57;;;;;;;33.80;17.77;;;9.60;99.90;;;;;;10038850;29;20256;-79
2023/01/02 09:14:20;;;;;;;30.17;16.30;;;9.60;99.90;;;;;;10041513;29;20523;-77
2023/01/02 09:19:41;;;;;;;26.43;15.53;;;9.60;99.90;;;;;;10025740;29;20313;-82
2023/01/02 09:25:03;;;;;;;29.80;18.43;;;9.70;99.90;;;;;;10038586;29;20553;-81
2023/01/02 09:30:24;;;;;;;26.27;15.87;;;9.80;99.90;;;;;;10038744;29;20243;-79
2023/01/02 09:35:45;;;;;;;27.17;14.37;;;9.80;99.90;;;;;;10038772;29;20213;-80
2023/01/02 09:41:29;;;;;;;28.37;15.93;;;9.80;99.90;;;;;;10037757;29;20294;-81
2023/01/02 09:46:55;;;;;;;30.73;19.07;;;9.80;99.90;;;;;;10050347;29;20199;-84
2023/01/02 09:52:41;;;;;;;34.57;16.27;;;9.90;99.90;;;;;;10040350;29;20228;-90
2023/01/02 09:58:17;;;;;;;29.00;15.73;;;9.90;99.90;;;;;;10054519;29;20220;-80
2023/01/02 10:04:06;;;;;;;28.07;16.10;;;9.80;99.90;;;;;;10037128;29;20211;-81
2023/01/02 10:09:44;;;;;;;33.13;18.07;;;9.70;99.90;;;;;;10036579;29;20451;-83
2023/01/02 10:15:12;;;;;;;29.93;17.37;;;9.70;99.90;;;;;;10051546;29;20416;-80
2023/01/02 10:20:39;;;;;;;28.23;16.40;;;9.70;99.90;;;;;;10039080;29;20233;-80
2023/01/02 10:26:04;;;;;;;25.67;15.03;;;9.80;99.90;;;;;;10037268;29;20254;-79
2023/01/02 10:31:40;;;;;;;28.93;15.67;;;9.80;99.90;;;;;;10022001;29;20235;-79
2023/01/02 10:37:01;;;;;;;26.60;15.63;;;9.80;99.90;;;;;;10033436;29;20232;-77
2023/01/02 10:42:26;;;;;;;34.00;14.53;;;9.80;99.90;;;;;;10052539;29;20329;-78
2023/01/02 10:47:47;;;;;;;23.50;13.53;;;9.90;99.90;;;;;;10049746;29;20449;-78
2023/01/02 10:53:27;;;;;;;26.87;13.67;;;9.90;99.90;;;;;;10069568;29;20576;-77
2023/01/02 10:58:50;;;;;;;30.53;14.57;;;10.00;99.90;;;;;;10059159;29;20319;-84
2023/01/02 11:04:12;;;;;;;23.93;13.80;;;10.00;99.90;;;;;;10061155;29;20253;-80
2023/01/02 11:09:37;;;;;;;24.93;13.73;;;10.10;99.90;;;;;;10040122;29;20230;-80
2023/01/02 11:15:12;;;;;;;29.27;14.83;;;10.10;99.90;;;;;;10053050;29;20225;-81
2023/01/02 11:20:36;;;;;;;37.73;19.33;;;10.20;99.90;;;;;;10053942;29;20641;-82
2023/01/02 11:25:57;;;;;;;26.63;14.63;;;10.30;99.90;;;;;;10059321;29;20201;-80
2023/01/02 11:31:20;;;;;;;22.50;12.83;;;10.30;99.90;;;;;;10036266;29;20234;-78
2023/01/02 11:36:43;;;;;;;25.50;12.57;;;10.40;99.90;;;;;;10046372;29;20293;-78
2023/01/02 11:48:11;;;;;;;26.73;13.57;;;10.50;99.90;;;;;;10068455;29;20275;-81
2023/01/02 11:53:39;;;;;;;22.20;12.50;;;10.50;99.90;;;;;;10042898;29;20289;-78
2023/01/02 11:59:19;;;;;;;23.27;11.63;;;10.50;99.90;;;;;;10064379;29;20292;-78
2023/01/02 12:04:40;;;;;;;18.00;10.87;;;10.60;99.90;;;;;;10065837;29;20275;-81
2023/01/02 12:10:04;;;;;;;23.70;13.57;;;10.70;99.90;;;;;;10074124;29;20248;-79
2023/01/02 12:15:26;;;;;;;20.40;13.73;;;10.60;99.90;;;;;;10057447;29;20217;-84
2023/01/02 12:21:13;;;;;;;26.63;13.60;;;10.60;99.90;;;;;;10074935;29;20200;-78
2023/01/02 12:26:49;;;;;;;31.70;14.97;;;10.70;99.90;;;;;;10058485;29;20214;-79
2023/01/02 12:32:24;;;;;;;25.73;12.53;;;10.70;1.00;;;;;;10049748;29;20448;-78
2023/01/02 12:37:55;;;;;;;20.73;11.77;;;10.80;1.00;;;;;;10036446;29;20235;-80
2023/01/02 12:43:24;;;;;;;20.23;9.97;;;10.90;1.00;;;;;;10046100;29;20222;-81
2023/01/02 12:49:16;;;;;;;28.50;14.77;;;10.90;1.00;;;;;;10056644;29;20214;-80
2023/01/02 12:55:04;;;;;;;20.70;9.67;;;10.90;1.00;;;;;;10040913;29;20256;-79
2023/01/02 13:00:49;;;;;;;36.13;15.23;;;11.00;1.00;;;;;;10052795;29;20217;-80
2023/01/02 13:06:36;;;;;;;51.20;24.00;;;11.10;1.00;;;;;;10058276;29;20530;-78
2023/01/02 13:12:24;;;;;;;51.50;22.73;;;11.00;1.00;;;;;;10044189;29;20531;-78
2023/01/02 13:18:09;;;;;;;78.60;33.73;;;11.00;1.00;;;;;;10035482;29;20210;-81
2023/01/02 13:23:34;;;;;;;84.57;32.93;;;10.90;1.00;;;;;;10041349;29;20497;-81
2023/01/02 13:29:05;;;;;;;67.07;25.43;;;10.90;1.00;;;;;;10054663;29;20285;-84
2023/01/02 13:34:31;;;;;;;91.87;30.37;;;10.90;1.00;;;;;;10032795;29;20245;-82
2023/01/02 13:39:56;;;;;;;89.37;35.20;;;10.90;1.00;;;;;;10053402;29;20277;-80
2023/01/02 13:45:58;;;;;;;64.47;30.70;;;10.90;1.00;;;;;;10047662;29;20220;-78
2023/01/02 13:51:33;;;;;;;48.83;22.67;;;10.90;1.00;;;;;;10048684;29;20576;-79
2023/01/02 13:57:15;;;;;;;58.87;28.63;;;11.00;1.00;;;;;;10038386;29;20209;-79
2023/01/02 14:02:36;;;;;;;48.47;22.87;;;11.00;1.00;;;;;;10053969;29;20210;-79
2023/01/02 14:08:22;;;;;;;57.03;22.40;;;11.00;1.00;;;;;;10060500;29;20222;-82
2023/01/02 14:13:46;;;;;;;64.10;26.03;;;11.00;1.00;;;;;;10048478;29;20282;-81
2023/01/02 14:19:14;;;;;;;88.53;36.63;;;11.00;1.00;;;;;;10058151;29;20224;-86
2023/01/02 14:24:39;;;;;;;56.00;21.00;;;10.90;1.00;;;;;;10061605;29;20202;-82
2023/01/02 14:30:10;;;;;;;29.27;13.60;;;10.90;1.00;;;;;;10063304;29;20237;-82
2023/01/02 14:35:48;;;;;;;36.70;16.40;;;10.80;1.00;;;;;;10044450;29;20277;-80
2023/01/02 14:47:38;;;;;;;47.17;21.50;;;10.80;1.00;;;;;;10054296;29;20251;-78
2023/01/02 14:53:21;;;;;;;34.07;15.77;;;10.80;1.00;;;;;;10056678;29;20222;-79
2023/01/02 14:58:44;;;;;;;41.60;17.93;;;11.00;1.00;;;;;;10054571;29;20636;-76
2023/01/02 15:04:47;;;;;;;32.53;15.73;;;11.00;1.00;;;;;;10067300;29;20296;-80
2023/01/02 15:10:16;;;;;;;30.87;14.20;;;11.00;1.00;;;;;;10036004;29;20232;-79
2023/01/02 15:15:40;;;;;;;24.87;12.10;;;11.00;1.00;;;;;;10042173;29;20584;-83
2023/01/02 15:21:12;;;;;;;19.57;10.47;;;11.00;1.00;;;;;;10061328;29;20200;-80
2023/01/02 15:26:34;;;;;;;26.90;13.37;;;11.00;1.00;;;;;;10058223;29;20428;-82
2023/01/02 15:31:56;;;;;;;24.43;10.83;;;11.10;1.00;;;;;;10062787;29;20230;-84
2023/01/02 15:37:19;;;;;;;23.43;10.20;;;11.00;1.00;;;;;;10042141;29;20210;-80
2023/01/02 15:48:27;;;;;;;19.10;9.33;;;11.00;1.00;;;;;;10078593;29;20214;-78
2023/01/02 15:53:48;;;;;;;24.23;10.03;;;11.00;1.00;;;;;;10058539;29;20235;-80
2023/01/02 15:59:22;;;;;;;20.70;10.93;;;11.00;1.00;;;;;;10065747;29;20243;-81
2023/01/02 16:04:43;;;;;;;26.33;11.57;;;11.00;1.00;;;;;;10061952;29;20202;-80
2023/01/02 16:10:06;;;;;;;26.07;10.87;;;11.00;1.00;;;;;;10055871;29;20249;-78
2023/01/02 16:15:31;;;;;;;20.60;9.23;;;10.80;1.00;;;;;;10062835;29;20515;-80
2023/01/02 16:20:58;;;;;;;20.30;9.40;;;10.90;1.00;;;;;;10071443;29;20635;-82
2023/01/02 16:26:20;;;;;;;17.97;8.90;;;10.80;1.00;;;;;;10085000;29;20202;-80
2023/01/02 16:31:59;;;;;;;15.43;8.10;;;10.80;1.00;;;;;;10056074;29;20253;-82
2023/01/02 16:37:32;;;;;;;19.73;9.73;;;10.80;1.00;;;;;;10056350;29;20225;-83
2023/01/02 16:43:01;;;;;;;19.07;8.40;;;10.80;1.00;;;;;;10043670;29;20232;-81
2023/01/02 16:48:26;;;;;;;19.93;8.80;;;10.90;1.00;;;;;;10056979;29;20426;-81
2023/01/02 16:53:48;;;;;;;12.43;7.50;;;10.90;1.00;;;;;;10043995;29;20235;-81
2023/01/02 16:59:09;;;;;;;18.17;9.90;;;10.80;1.00;;;;;;10042653;29;20221;-82
2023/01/02 17:04:31;;;;;;;23.87;12.80;;;10.90;1.00;;;;;;10057512;29;20261;-79
2023/01/02 17:09:53;;;;;;;21.03;12.63;;;10.90;1.00;;;;;;10044284;29;20519;-80
2023/01/02 17:15:15;;;;;;;21.93;10.30;;;10.90;1.00;;;;;;10045015;29;20253;-82
2023/01/02 17:20:37;;;;;;;21.13;10.03;;;10.80;1.00;;;;;;10058868;29;20390;-82
2023/01/02 17:25:58;;;;;;;23.93;9.00;;;10.80;1.00;;;;;;10056710;29;20209;-82
2023/01/02 17:31:19;;;;;;;19.63;8.37;;;10.90;1.00;;;;;;10043506;29;20233;-79
2023/01/02 17:36:44;;;;;;;19.80;9.00;;;10.90;1.00;;;;;;10042765;29;20496;-79
2023/01/02 17:42:05;;;;;;;18.17;7.97;;;11.00;1.00;;;;;;10042069;29;20245;-78
2023/01/02 17:47:29;;;;;;;20.03;8.43;;;11.00;1.00;;;;;;10043556;29;20518;-81
2023/01/02 17:53:10;;;;;;;25.60;10.93;;;11.00;1.00;;;;;;10043550;29;20227;-82
2023/01/02 17:58:31;;;;;;;23.27;7.93;;;11.00;1.00;;;;;;10043582;29;20260;-79
2023/01/02 18:03:51;;;;;;;16.30;6.83;;;11.10;1.00;;;;;;10042924;29;20208;-81
2023/01/02 18:09:12;;;;;;;15.20;8.00;;;11.20;1.00;;;;;;10042904;29;20199;-82
2023/01/02 18:14:36;;;;;;;13.10;6.73;;;11.30;1.00;;;;;;10054912;29;20202;-82
2023/01/02 18:19:57;;;;;;;11.47;6.50;;;11.30;1.00;;;;;;10042788;29;20268;-80
2023/01/02 18:25:23;;;;;;;10.87;6.60;;;11.30;1.00;;;;;;10042450;29;20199;-82
2023/01/02 18:30:44;;;;;;;16.53;7.23;;;11.20;1.00;;;;;;10042159;29;20241;-81
2023/01/02 18:36:20;;;;;;;20.67;8.37;;;11.10;1.00;;;;;;10056024;29;20535;-80
2023/01/02 18:41:42;;;;;;;16.60;8.97;;;11.10;1.00;;;;;;10028463;29;20250;-81
2023/01/02 18:47:23;;;;;;;18.43;8.93;;;11.10;1.00;;;;;;10041496;29;20584;-81
2023/01/02 18:52:46;;;;;;;16.63;8.43;;;11.00;1.00;;;;;;10040072;29;20239;-79
2023/01/02 18:58:36;;;;;;;17.97;7.53;;;11.00;1.00;;;;;;10040539;29;20200;-82
2023/01/02 19:04:10;;;;;;;18.83;6.80;;;11.00;1.00;;;;;;10041675;29;20196;-81
2023/01/02 19:09:37;;;;;;;12.73;6.67;;;11.00;1.00;;;;;;10040511;29;20386;-80
2023/01/02 19:15:00;;;;;;;12.93;7.53;;;11.10;1.00;;;;;;10053500;29;20198;-80
2023/01/02 19:20:22;;;;;;;16.93;8.07;;;11.10;1.00;;;;;;10053501;29;20206;-80
2023/01/02 19:25:43;;;;;;;18.83;7.93;;;11.10;1.00;;;;;;10041448;29;20539;-80
2023/01/02 19:31:13;;;;;;;15.20;7.73;;;11.00;1.00;;;;;;10041147;29;20451;-81
2023/01/02 19:36:36;;;;;;;13.53;4.80;;;11.00;1.00;;;;;;10038752;29;20281;-81
2023/01/02 19:47:37;;;;;;;6.67;3.00;;;11.10;1.00;;;;;;10040237;29;20460;-80
2023/01/02 19:52:58;;;;;;;10.77;2.10;;;11.40;1.00;;;;;;10039758;29;20312;-81
2023/01/02 19:58:19;;;;;;;4.50;1.93;;;11.20;1.00;;;;;;10039637;29;20204;-81
2023/01/02 20:03:41;;;;;;;4.83;0.97;;;11.00;1.00;;;;;;10040929;29;20207;-81
2023/01/02 20:09:02;;;;;;;1.20;1.00;;;10.70;1.00;;;;;;10046248;29;20401;-79
2023/01/02 20:14:25;;;;;;;2.30;0.93;;;10.30;1.00;;;;;;10061535;29;20237;-81
2023/01/02 20:19:46;;;;;;;1.70;0.80;;;10.10;99.90;;;;;;10047379;29;20281;-81
2023/01/02 20:25:09;;;;;;;1.43;0.80;;;10.00;1.00;;;;;;10061249;29;20227;-80
2023/01/02 20:30:31;;;;;;;2.50;1.70;;;9.80;1.00;;;;;;10046795;29;20279;-81
2023/01/02 20:35:52;;;;;;;4.20;1.90;;;9.70;1.00;;;;;;10058372;29;20211;-81
2023/01/02 20:41:13;;;;;;;4.93;1.97;;;9.70;1.00;;;;;;10044996;29;20250;-81
2023/01/02 20:46:35;;;;;;;8.43;1.97;;;9.50;1.00;;;;;;10046343;29;20459;-80
2023/01/02 20:51:56;;;;;;;2.50;1.50;;;9.40;1.00;;;;;;10046078;29;20271;-81
2023/01/02 20:57:17;;;;;;;5.83;2.67;;;9.50;1.00;;;;;;10044581;29;20199;-81
2023/01/02 21:02:39;;;;;;;3.87;1.90;;;9.30;1.00;;;;;;10031843;29;20213;-81
2023/01/02 21:08:00;;;;;;;4.73;2.30;;;9.30;1.00;;;;;;10045451;29;20243;-81
2023/01/02 21:13:21;;;;;;;2.47;2.20;;;9.20;1.00;;;;;;10045089;29;20238;-81
2023/01/02 21:18:42;;;;;;;1.47;0.93;;;9.10;1.00;;;;;;10044323;29;20202;-80
2023/01/02 21:24:03;;;;;;;2.17;1.40;;;9.10;1.00;;;;;;10056840;29;20227;-80
2023/01/02 21:29:24;;;;;;;2.33;1.33;;;9.00;1.00;;;;;;10056961;29;20376;-81
2023/01/02 21:34:45;;;;;;;4.60;1.90;;;8.90;1.00;;;;;;10043881;29;20238;-80
2023/01/02 21:40:07;;;;;;;5.97;2.57;;;8.90;1.00;;;;;;10044078;29;20429;-81
2023/01/02 21:45:28;;;;;;;5.00;2.00;;;8.90;1.00;;;;;;10043913;29;20204;-81
2023/01/02 21:50:49;;;;;;;1.90;1.70;;;8.80;1.00;;;;;;10043964;29;20525;-81
2023/01/02 21:56:10;;;;;;;1.53;1.43;;;8.80;1.00;;;;;;10043440;29;20270;-81
2023/01/02 22:01:31;;;;;;;4.13;1.53;;;8.80;1.00;;;;;;10042524;29;20460;-81
2023/01/02 22:06:52;;;;;;;2.97;1.87;;;8.90;1.00;;;;;;10042087;29;20279;-81
2023/01/02 22:12:35;;;;;;;2.10;1.80;;;8.80;1.00;;;;;;10055252;29;20567;-81
2023/01/02 22:17:56;;;;;;;2.23;1.93;;;8.70;1.00;;;;;;10043093;29;20206;-81
2023/01/02 22:23:17;;;;;;;3.60;2.03;;;8.80;99.90;;;;;;10054712;29;20206;-81
2023/01/02 22:28:41;;;;;;;3.00;2.10;;;8.80;99.90;;;;;;10041612;29;20270;-81
2023/01/02 22:34:03;;;;;;;3.80;2.70;;;8.70;99.90;;;;;;10056601;29;20234;-81
2023/01/02 22:39:24;;;;;;;2.50;1.97;;;8.60;99.90;;;;;;10042398;29;20202;-81
2023/01/02 22:44:48;;;;;;;2.33;1.87;;;8.60;99.90;;;;;;10041419;29;20234;-82
2023/01/02 22:50:19;;;;;;;2.83;1.90;;;8.60;99.90;;;;;;10040816;29;20214;-81
2023/01/02 22:55:41;;;;;;;2.03;1.50;;;8.60;99.90;;;;;;10040884;29;20218;-80
2023/01/02 23:01:09;;;;;;;1.40;1.30;;;8.50;99.90;;;;;;10041892;29;20199;-81
2023/01/02 23:06:30;;;;;;;2.10;1.33;;;8.50;99.90;;;;;;10040316;29;20205;-81
2023/01/02 23:11:51;;;;;;;2.57;1.47;;;8.40;1.00;;;;;;10042959;29;20257;-82
2023/01/02 23:22:52;;;;;;;5.40;1.47;;;8.40;1.00;;;;;;10041352;29;20425;-80
2023/01/02 23:28:13;;;;;;;1.97;1.10;;;8.40;99.90;;;;;;10053833;29;20209;-81
2023/01/02 23:33:45;;;;;;;2.73;1.07;;;8.30;99.90;;;;;;10054767;29;20246;-78
2023/01/02 23:39:12;;;;;;;1.40;0.97;;;8.30;1.00;;;;;;10053370;29;20197;-81
2023/01/02 23:44:34;;;;;;;2.23;1.30;;;8.20;1.00;;;;;;10047107;29;20255;-81
2023/01/02 23:49:55;;;;;;;2.67;1.20;;;8.20;1.00;;;;;;10034303;29;20209;-76
2023/01/02 23:55:16;;;;;;;0.67;0.67;;;8.20;1.00;;;;;;10048265;29;20533;-78
